createdAt,value
2022-08-26T00:00:45.408Z,97719.47
2022-08-26T00:02:46.779Z,97718.63
2022-08-26T00:04:48.114Z,97721.25
2022-08-26T00:06:49.645Z,97719.56
2022-08-26T00:08:50.996Z,97711.94
2022-08-26T00:10:52.304Z,97714.56
2022-08-26T00:12:53.662Z,97709.44
2022-08-26T00:14:54.970Z,97712.06
2022-08-26T00:16:56.894Z,97705.16
2022-08-26T00:19:00.071Z,97702.41
2022-08-26T00:21:01.402Z,97700.69
2022-08-26T00:23:07.979Z,97695.56
2022-08-26T00:25:09.463Z,97695.56
2022-08-26T00:27:11.243Z,97698.13
2022-08-26T00:29:12.595Z,97696.41
2022-08-26T00:31:14.364Z,97698.13
2022-08-26T00:33:15.664Z,97699.81
2022-08-26T00:35:19.779Z,97688.66
2022-08-26T00:37:21.695Z,97691.06
2022-08-26T00:39:23.735Z,97690.22
2022-08-26T00:41:25.034Z,97685.13
2022-08-26T00:43:27.159Z,97691.09
2022-08-26T00:45:28.960Z,97690.25
2022-08-26T00:47:31.070Z,97679.25
2022-08-26T00:49:32.611Z,97686.09
2022-08-26T00:51:33.969Z,97685.28
2022-08-26T00:53:35.278Z,97681.03
2022-08-26T00:55:37.914Z,97679.31
2022-08-26T00:57:39.602Z,97682.75
2022-08-26T00:59:40.911Z,97677.63
2022-08-26T01:01:42.269Z,97683.59
2022-08-26T01:03:47.428Z,97672.50
2022-08-26T01:05:49.091Z,97675.06
2022-08-26T01:07:50.452Z,97677.63
2022-08-26T01:09:51.754Z,97674.22
2022-08-26T01:11:53.098Z,97679.34
2022-08-26T01:13:54.696Z,97676.84
2022-08-26T01:15:56.651Z,97679.41
2022-08-26T01:17:58.778Z,97682.75
2022-08-26T01:20:01.128Z,97683.53
2022-08-26T01:22:02.759Z,97679.25
2022-08-26T01:24:04.214Z,97675.84
2022-08-26T01:26:05.597Z,97679.34
2022-08-26T01:28:09.029Z,97683.59
2022-08-26T01:30:11.659Z,97687.00
2022-08-26T01:32:12.951Z,97676.78
2022-08-26T01:34:14.286Z,97684.47
2022-08-26T01:36:16.070Z,97684.47
2022-08-26T01:38:18.311Z,97678.56
2022-08-26T01:40:19.742Z,97686.19
2022-08-26T01:42:21.138Z,97677.63
2022-08-26T01:44:22.456Z,97676.78
2022-08-26T01:46:23.804Z,97679.31
2022-08-26T01:48:25.270Z,97681.88
2022-08-26T01:50:27.841Z,97681.81
2022-08-26T01:52:31.402Z,97674.97
2022-08-26T01:54:32.730Z,97674.00
2022-08-26T01:56:36.464Z,97666.31
2022-08-26T01:58:37.920Z,97675.72
2022-08-26T02:00:39.255Z,97666.44
2022-08-26T02:02:40.589Z,97677.53
2022-08-26T02:04:44.834Z,97670.72
2022-08-26T02:06:46.142Z,97663.84
2022-08-26T02:08:47.463Z,97671.66
2022-08-26T02:10:48.764Z,97667.50
2022-08-26T02:12:50.394Z,97665.84
2022-08-26T02:14:53.253Z,97671.00
2022-08-26T02:16:55.251Z,97672.72
2022-08-26T02:18:57.007Z,97669.34
2022-08-26T02:20:58.500Z,97671.91
2022-08-26T02:22:59.802Z,97667.59
2022-08-26T02:25:01.115Z,97671.00
2022-08-26T02:27:03.678Z,97667.56
2022-08-26T02:29:04.987Z,97659.88
2022-08-26T02:31:08.963Z,97664.16
2022-08-26T02:33:11.382Z,97659.97
2022-08-26T02:35:12.672Z,97662.47
2022-08-26T02:37:14.520Z,97673.53
2022-08-26T02:39:22.140Z,97674.88
2022-08-26T02:41:23.868Z,97664.22
2022-08-26T02:43:31.736Z,97661.81
2022-08-26T02:45:34.994Z,97672.59
2022-08-26T02:47:36.882Z,97662.75
2022-08-26T02:49:38.190Z,97666.47
2022-08-26T02:51:39.548Z,97660.69
2022-08-26T02:53:41.403Z,97656.75
2022-08-26T02:55:44.193Z,97655.03
2022-08-26T02:57:45.583Z,97657.06
2022-08-26T02:59:46.986Z,97655.75
2022-08-26T03:01:49.598Z,97655.09
2022-08-26T03:03:50.977Z,97651.75
2022-08-26T03:05:52.799Z,97646.69
2022-08-26T03:07:55.698Z,97427.91
2022-08-26T03:09:57.524Z,97641.72
2022-08-26T03:11:58.895Z,97648.63
2022-08-26T03:14:00.641Z,97639.25
2022-08-26T03:16:04.783Z,97647.00
2022-08-26T03:18:06.710Z,97641.94
2022-08-26T03:20:11.440Z,97643.66
2022-08-26T03:22:15.019Z,97638.56
2022-08-26T03:24:17.758Z,97637.75
2022-08-26T03:26:19.231Z,97635.22
2022-08-26T03:28:20.547Z,97630.97
2022-08-26T03:30:44.625Z,97627.63
2022-08-26T03:32:46.514Z,97628.56
2022-08-26T03:34:47.847Z,97632.00
2022-08-26T03:36:49.187Z,97626.03
2022-08-26T03:38:51.414Z,97630.31
2022-08-26T03:40:52.806Z,97630.38
2022-08-26T03:42:54.114Z,97624.41
2022-08-26T03:44:55.421Z,97632.09
2022-08-26T03:46:56.742Z,97629.59
2022-08-26T03:48:58.494Z,97619.38
2022-08-26T03:51:00.128Z,97630.47
2022-08-26T03:53:04.518Z,97625.44
2022-08-26T03:55:08.655Z,97625.44
2022-08-26T03:57:09.958Z,97631.41
2022-08-26T03:59:11.351Z,97633.13
2022-08-26T04:01:13.596Z,97626.38
2022-08-26T04:03:37.558Z,97630.66
2022-08-26T04:05:38.963Z,97634.06
2022-08-26T04:07:40.279Z,97631.53
2022-08-26T04:09:41.598Z,97627.34
2022-08-26T04:11:42.907Z,97632.41
2022-08-26T04:13:44.206Z,97633.31
2022-08-26T04:15:45.706Z,97635.91
2022-08-26T04:17:47.883Z,97635.03
2022-08-26T04:19:50.174Z,97627.41
2022-08-26T04:21:53.301Z,97637.66
2022-08-26T04:23:54.691Z,97630.84
2022-08-26T04:25:56.492Z,97635.13
2022-08-26T04:27:57.893Z,97639.41
2022-08-26T04:29:59.198Z,97635.19
2022-08-26T04:32:00.506Z,97641.16
2022-08-26T04:34:01.823Z,97635.19
2022-08-26T04:36:03.201Z,97642.88
2022-08-26T04:38:05.846Z,97638.63
2022-08-26T04:40:10.132Z,97636.06
2022-08-26T04:42:12.583Z,97635.22
2022-08-26T04:44:14.178Z,97642.03
2022-08-26T04:46:15.772Z,97637.78
2022-08-26T04:48:17.315Z,97639.50
2022-08-26T04:50:20.678Z,97642.97
2022-08-26T04:52:22.907Z,97637.00
2022-08-26T04:54:25.070Z,97637.00
2022-08-26T04:56:26.595Z,97639.56
2022-08-26T04:58:27.964Z,97636.16
2022-08-26T05:00:29.343Z,97635.31
2022-08-26T05:02:31.515Z,97642.19
2022-08-26T05:04:32.827Z,97634.50
2022-08-26T05:06:37.007Z,97636.22
2022-08-26T05:08:38.568Z,97642.19
2022-08-26T05:10:39.871Z,97630.25
2022-08-26T05:12:41.835Z,97630.25
2022-08-26T05:14:46.395Z,97632.88
2022-08-26T05:16:49.348Z,97638.81
2022-08-26T05:18:50.788Z,97637.94
2022-08-26T05:20:54.034Z,97642.22
2022-08-26T05:22:56.118Z,97631.97
2022-08-26T05:24:57.486Z,97637.16
2022-08-26T05:26:58.854Z,97632.88
2022-08-26T05:29:01.474Z,97633.75
2022-08-26T05:31:02.846Z,97636.31
2022-08-26T05:33:04.230Z,97632.03
2022-08-26T05:35:05.530Z,97627.81
2022-08-26T05:37:10.310Z,97630.38
2022-08-26T05:39:11.889Z,97628.66
2022-08-26T05:41:14.141Z,97632.91
2022-08-26T05:43:17.890Z,97629.50
2022-08-26T05:45:24.171Z,97628.66
2022-08-26T05:47:25.588Z,97630.38
2022-08-26T05:49:26.899Z,97630.38
2022-08-26T05:51:29.260Z,97628.69
2022-08-26T05:53:32.622Z,97632.91
2022-08-26T05:55:33.954Z,97628.69
2022-08-26T05:57:39.974Z,97630.44
2022-08-26T05:59:43.879Z,97627.03
2022-08-26T06:01:47.271Z,97631.25
2022-08-26T06:03:49.009Z,97638.91
2022-08-26T06:05:50.382Z,97627.88
2022-08-26T06:08:10.436Z,97630.44
2022-08-26T06:10:32.526Z,97632.16
2022-08-26T06:12:33.103Z,97626.19
2022-08-26T06:14:35.607Z,97637.25
2022-08-26T06:16:38.235Z,97630.47
2022-08-26T06:18:39.559Z,97631.31
2022-08-26T06:20:44.061Z,97621.94
2022-08-26T06:23:17.311Z,97630.47
2022-08-26T06:25:37.191Z,97622.78
2022-08-26T06:27:38.708Z,97633.84
2022-08-26T06:29:40.048Z,97512.97
2022-08-26T06:31:41.366Z,97629.63
2022-08-26T06:33:42.737Z,97630.47
2022-08-26T06:35:45.622Z,97623.63
2022-08-26T06:37:47.258Z,97627.91
2022-08-26T06:39:49.096Z,97630.47
2022-08-26T06:41:52.975Z,97627.13
2022-08-26T06:43:54.334Z,97621.13
2022-08-26T06:45:55.672Z,97621.13
2022-08-26T06:47:57.690Z,97628.81
2022-08-26T06:49:59.001Z,97621.94
2022-08-26T06:52:00.307Z,97624.56
2022-08-26T06:54:01.875Z,97634.72
2022-08-26T06:56:03.194Z,97621.13
2022-08-26T06:58:04.603Z,97622.00
2022-08-26T07:00:07.740Z,97620.31
2022-08-26T07:02:09.292Z,97618.56
2022-08-26T07:04:15.540Z,97626.25
2022-08-26T07:06:19.385Z,97625.41
2022-08-26T07:08:20.774Z,97614.25
2022-08-26T07:10:22.140Z,97616.00
2022-08-26T07:12:23.513Z,97619.38
2022-08-26T07:14:26.637Z,97613.47
2022-08-26T07:16:28.050Z,97616.81
2022-08-26T07:18:30.889Z,97620.22
2022-08-26T07:20:32.202Z,97616.81
2022-08-26T07:22:33.558Z,97621.94
2022-08-26T07:24:35.117Z,97625.34
2022-08-26T07:26:36.679Z,97627.91
2022-08-26T07:28:39.460Z,97622.78
2022-08-26T07:30:41.138Z,97620.22
2022-08-26T07:32:43.439Z,97614.22
2022-08-26T07:34:44.740Z,97615.94
2022-08-26T07:36:46.067Z,97617.66
2022-08-26T07:38:48.179Z,97618.50
2022-08-26T07:40:50.019Z,97615.94
2022-08-26T07:42:51.363Z,97620.19
2022-08-26T07:44:53.890Z,97615.88
2022-08-26T07:46:55.197Z,97611.50
2022-08-26T07:48:56.582Z,97613.03
2022-08-26T07:50:57.891Z,97609.50
2022-08-26T07:52:59.259Z,97611.91
2022-08-26T07:55:01.954Z,97606.69
2022-08-26T07:57:05.204Z,97608.28
2022-08-26T07:59:13.650Z,97609.91
2022-08-26T08:01:16.306Z,97603.84
2022-08-26T08:03:17.743Z,97605.44
2022-08-26T08:05:19.468Z,97605.38
2022-08-26T08:07:20.826Z,97603.63
2022-08-26T08:09:27.217Z,97602.72
2022-08-26T08:11:31.154Z,97606.09
2022-08-26T08:13:32.582Z,97596.66
2022-08-26T08:15:33.918Z,97605.09
2022-08-26T08:17:36.873Z,97593.16
2022-08-26T08:19:39.206Z,97596.47
2022-08-26T08:21:40.655Z,97595.59
2022-08-26T08:23:41.960Z,97592.97
2022-08-26T08:25:43.771Z,97597.22
2022-08-26T08:27:45.598Z,97591.19
2022-08-26T08:29:47.370Z,97587.75
2022-08-26T08:31:58.067Z,97592.00
2022-08-26T08:34:00.087Z,97587.72
2022-08-26T08:36:01.447Z,97587.63
2022-08-26T08:38:06.399Z,97581.63
2022-08-26T08:40:09.139Z,97590.09
2022-08-26T08:42:10.878Z,97581.50
2022-08-26T08:44:12.220Z,97588.31
2022-08-26T08:46:13.590Z,97588.25
2022-08-26T08:48:15.043Z,97578.81
2022-08-26T08:50:17.695Z,97587.31
2022-08-26T08:52:19.023Z,97582.19
2022-08-26T08:54:22.044Z,97580.69
2022-08-26T08:56:26.485Z,97582.50
2022-08-26T08:58:28.319Z,97580.69
2022-08-26T09:00:30.444Z,97583.94
2022-08-26T09:02:32.101Z,97581.28
2022-08-26T09:04:33.591Z,97572.72
2022-08-26T09:06:34.907Z,97570.38
2022-08-26T09:08:37.000Z,97580.69
2022-08-26T09:10:38.333Z,97574.00
2022-08-26T09:12:39.638Z,97578.91
2022-08-26T09:14:41.003Z,97573.59
2022-08-26T09:16:42.549Z,97571.88
2022-08-26T09:18:46.179Z,97564.97
2022-08-26T09:20:47.672Z,97571.78
2022-08-26T09:22:51.409Z,97565.69
2022-08-26T09:24:52.732Z,97567.38
2022-08-26T09:26:56.564Z,97564.00
2022-08-26T09:28:58.226Z,97565.75
2022-08-26T09:30:59.838Z,97564.94
2022-08-26T09:33:01.389Z,97562.25
2022-08-26T09:35:02.784Z,97565.59
2022-08-26T09:37:04.596Z,97551.28
2022-08-26T09:39:06.115Z,97554.72
2022-08-26T09:41:08.333Z,97550.25
2022-08-26T09:43:10.295Z,97546.75
2022-08-26T09:45:12.912Z,97545.03
2022-08-26T09:47:15.102Z,97548.50
2022-08-26T09:49:16.408Z,97543.72
2022-08-26T09:51:18.400Z,97535.41
2022-08-26T09:53:21.134Z,97537.25
2022-08-26T09:55:29.920Z,97538.75
2022-08-26T09:57:31.332Z,97539.72
2022-08-26T09:59:34.102Z,97537.69
2022-08-26T10:01:36.081Z,97534.13
2022-08-26T10:03:37.559Z,97536.50
2022-08-26T10:05:38.929Z,97536.69
2022-08-26T10:07:41.275Z,97527.59
2022-08-26T10:09:45.728Z,97526.91
2022-08-26T10:11:47.293Z,97524.28
2022-08-26T10:13:49.096Z,97524.28
2022-08-26T10:15:51.160Z,97527.03
2022-08-26T10:17:52.630Z,97531.19
2022-08-26T10:19:56.592Z,97530.28
2022-08-26T10:21:58.906Z,97529.63
2022-08-26T10:24:00.217Z,97531.41
2022-08-26T10:26:03.043Z,97527.16
2022-08-26T10:28:04.664Z,97520.44
2022-08-26T10:30:06.285Z,97522.19
2022-08-26T10:32:08.525Z,97518.03
2022-08-26T10:34:15.178Z,97512.09
2022-08-26T10:36:46.951Z,97508.69
2022-08-26T10:38:57.546Z,97505.69
2022-08-26T10:41:01.411Z,97504.00
2022-08-26T10:43:08.481Z,97506.69
2022-08-26T10:45:15.041Z,97505.03
2022-08-26T10:47:16.747Z,97497.47
2022-08-26T10:49:19.378Z,97503.47
2022-08-26T10:51:20.674Z,97347.66
2022-08-26T10:53:25.295Z,97489.56
2022-08-26T10:55:27.851Z,97486.34
2022-08-26T10:57:30.198Z,97489.78
2022-08-26T10:59:31.938Z,97477.94
2022-08-26T11:01:42.188Z,97482.00
2022-08-26T11:03:43.747Z,97471.53
2022-08-26T11:05:45.406Z,97470.31
2022-08-26T11:07:48.450Z,97465.88
2022-08-26T11:09:50.824Z,97464.94
2022-08-26T11:11:52.182Z,97464.78
2022-08-26T11:13:53.515Z,97458.72
2022-08-26T11:15:54.823Z,97455.38
2022-08-26T11:17:56.127Z,97451.97
2022-08-26T11:20:01.462Z,97447.56
2022-08-26T11:22:07.245Z,97444.00
2022-08-26T11:24:09.664Z,97450.78
2022-08-26T11:26:11.559Z,97448.09
2022-08-26T11:28:20.193Z,97444.25
2022-08-26T11:30:24.111Z,97440.66
2022-08-26T11:32:25.549Z,97448.66
2022-08-26T11:34:27.227Z,97447.00
2022-08-26T11:36:28.529Z,97447.09
2022-08-26T11:38:29.895Z,97442.94
2022-08-26T11:40:32.138Z,97443.94
2022-08-26T11:42:34.346Z,97443.16
2022-08-26T11:44:35.685Z,97455.88
2022-08-26T11:46:37.707Z,97439.25
2022-08-26T11:48:40.472Z,97434.19
2022-08-26T11:50:41.795Z,97431.78
2022-08-26T11:52:43.760Z,97435.31
2022-08-26T11:54:45.351Z,97436.06
2022-08-26T11:56:46.722Z,97423.09
2022-08-26T11:58:48.051Z,97417.66
2022-08-26T12:00:49.352Z,97416.06
2022-08-26T12:02:50.731Z,97412.78
2022-08-26T12:04:53.934Z,97411.72
2022-08-26T12:06:55.943Z,97407.66
2022-08-26T12:08:57.263Z,97409.22
2022-08-26T12:10:59.589Z,97410.28
2022-08-26T12:13:03.434Z,97405.34
2022-08-26T12:15:04.775Z,97400.41
2022-08-26T12:17:06.635Z,97395.34
2022-08-26T12:19:11.209Z,97395.41
2022-08-26T12:21:12.532Z,97388.66
2022-08-26T12:23:13.842Z,97389.63
2022-08-26T12:25:15.255Z,97380.31
2022-08-26T12:27:17.800Z,97386.22
2022-08-26T12:29:20.192Z,97382.84
2022-08-26T12:31:28.139Z,97374.34
2022-08-26T12:33:29.587Z,97376.78
2022-08-26T12:35:30.921Z,97376.25
2022-08-26T12:37:33.675Z,97372.31
2022-08-26T12:39:35.637Z,97366.88
2022-08-26T12:41:37.095Z,97368.38
2022-08-26T12:43:39.282Z,97368.13
2022-08-26T12:45:43.053Z,97362.00
2022-08-26T12:47:44.521Z,97383.56
2022-08-26T12:49:45.868Z,97368.97
2022-08-26T12:51:47.232Z,97372.56
2022-08-26T12:53:48.552Z,97361.81
2022-08-26T12:55:50.688Z,97346.28
2022-08-26T12:57:52.056Z,97344.75
2022-08-26T12:59:53.365Z,97331.44
2022-08-26T13:01:54.797Z,97339.03
2022-08-26T13:03:56.340Z,97348.16
2022-08-26T13:05:57.853Z,97353.63
2022-08-26T13:07:59.160Z,97349.56
2022-08-26T13:10:01.143Z,97366.53
2022-08-26T13:12:02.487Z,97369.50
2022-08-26T13:14:07.181Z,97357.88
2022-08-26T13:16:08.756Z,97353.00
2022-08-26T13:18:10.124Z,97354.50
2022-08-26T13:20:11.463Z,97347.03
2022-08-26T13:22:12.980Z,97344.25
2022-08-26T13:24:14.288Z,97359.03
2022-08-26T13:26:15.656Z,97358.41
2022-08-26T13:28:17.036Z,97364.50
2022-08-26T13:30:18.346Z,97372.28
2022-08-26T13:32:20.456Z,97364.91
2022-08-26T13:34:22.077Z,97366.91
2022-08-26T13:36:23.380Z,97363.72
2022-08-26T13:38:33.264Z,97365.56
2022-08-26T13:40:35.311Z,97363.97
2022-08-26T13:42:36.797Z,97363.84
2022-08-26T13:44:53.144Z,97356.72
2022-08-26T13:46:54.670Z,97354.59
2022-08-26T13:48:56.030Z,97349.19
2022-08-26T13:50:57.420Z,97338.94
2022-08-26T13:52:58.787Z,97338.81
2022-08-26T13:55:00.550Z,97326.78
2022-08-26T13:57:02.252Z,97329.22
2022-08-26T13:59:03.634Z,97329.94
2022-08-26T14:01:05.071Z,97324.22
2022-08-26T14:03:09.190Z,97323.09
2022-08-26T14:05:14.047Z,97328.50
2022-08-26T14:07:15.440Z,97327.81
2022-08-26T14:09:16.774Z,97331.00
2022-08-26T14:11:18.424Z,97336.16
2022-08-26T14:13:19.852Z,97328.88
2022-08-26T14:15:21.345Z,97336.91
2022-08-26T14:17:22.692Z,97329.50
2022-08-26T14:19:24.296Z,97329.34
2022-08-26T14:21:25.808Z,97318.69
2022-08-26T14:23:27.517Z,97327.25
2022-08-26T14:25:28.869Z,97329.84
2022-08-26T14:27:30.180Z,97323.81
2022-08-26T14:29:31.651Z,97319.19
2022-08-26T14:31:33.434Z,97322.91
2022-08-26T14:33:34.855Z,97310.13
2022-08-26T14:35:36.241Z,97308.81
2022-08-26T14:37:37.552Z,97308.66
2022-08-26T14:39:38.906Z,97301.34
2022-08-26T14:41:40.252Z,97292.59
2022-08-26T14:43:41.567Z,97294.72
2022-08-26T14:47:49.594Z,97291.78
2022-08-26T14:49:50.907Z,97284.88
2022-08-26T14:51:52.277Z,97278.22
2022-08-26T14:54:12.071Z,97268.53
2022-08-26T14:56:16.597Z,97271.69
2022-08-26T14:58:18.215Z,97269.75
2022-08-26T15:00:19.523Z,97274.97
2022-08-26T15:02:32.626Z,97283.34
2022-08-26T15:04:34.945Z,97292.06
2022-08-26T15:06:36.316Z,97308.66
2022-08-26T15:08:38.224Z,97307.03
2022-08-26T15:10:39.577Z,97314.75
2022-08-26T15:12:40.978Z,97321.75
2022-08-26T15:14:42.348Z,97313.31
2022-08-26T15:16:43.771Z,97321.75
2022-08-26T15:18:45.391Z,97314.06
2022-08-26T15:20:47.020Z,97301.50
2022-08-26T15:22:48.353Z,97296.91
2022-08-26T15:24:51.854Z,97289.97
2022-08-26T15:26:55.212Z,97284.78
2022-08-26T15:28:56.532Z,97278.97
2022-08-26T15:30:58.049Z,97286.69
2022-08-26T15:32:59.363Z,97302.06
2022-08-26T15:35:00.672Z,97311.47
2022-08-26T15:37:02.159Z,97326.22
2022-08-26T15:39:03.481Z,97334.53
2022-08-26T15:41:04.842Z,97327.78
2022-08-26T15:43:25.510Z,97322.50
2022-08-26T15:45:27.844Z,97328.28
2022-08-26T15:47:29.194Z,97325.00
2022-08-26T15:49:30.956Z,97332.88
2022-08-26T15:51:32.362Z,97335.53
2022-08-26T15:53:33.726Z,97352.38
2022-08-26T15:55:35.078Z,97362.25
2022-08-26T15:57:36.408Z,97367.19
2022-08-26T15:59:37.887Z,97362.06
2022-08-26T16:01:39.287Z,97358.72
2022-08-26T16:03:40.671Z,97345.19
2022-08-26T16:05:43.557Z,97347.81
2022-08-26T16:07:45.120Z,97347.38
2022-08-26T16:09:48.972Z,97363.19
2022-08-26T16:11:55.834Z,97377.84
2022-08-26T16:13:57.219Z,97367.56
2022-08-26T16:15:58.577Z,97371.72
2022-08-26T16:18:00.836Z,97369.84
2022-08-26T16:20:02.555Z,97356.84
2022-08-26T16:22:04.842Z,97364.50
2022-08-26T16:24:06.172Z,97365.06
2022-08-26T16:26:07.500Z,97366.56
2022-08-26T16:28:12.955Z,97369.75
2022-08-26T16:30:14.600Z,97373.06
2022-08-26T16:32:15.915Z,97378.31
2022-08-26T16:34:17.268Z,97363.19
2022-08-26T17:03:16.963Z,97331.88
2022-08-26T17:05:18.300Z,97322.16
2022-08-26T17:07:19.707Z,97324.25
2022-08-26T17:09:21.017Z,97329.09
2022-08-26T17:11:22.343Z,97336.88
2022-08-26T17:13:35.403Z,97332.72
2022-08-26T17:15:37.310Z,97335.16
2022-08-26T17:17:39.645Z,97329.81
2022-08-26T17:19:47.063Z,97332.84
2022-08-26T17:21:49.113Z,97332.97
2022-08-26T17:23:50.433Z,97341.09
2022-08-26T17:25:51.761Z,97348.38
2022-08-26T17:27:53.185Z,97348.53
2022-08-26T17:29:54.740Z,97369.06
2022-08-26T17:31:56.181Z,97373.84
2022-08-26T17:33:57.624Z,97373.66
2022-08-26T17:35:58.927Z,97377.69
2022-08-26T17:38:00.340Z,97387.44
2022-08-26T17:40:03.105Z,97379.41
2022-08-26T17:42:05.984Z,97359.44
2022-08-26T17:44:07.648Z,97348.22
2022-08-26T17:46:09.113Z,97344.88
2022-08-26T17:48:11.101Z,97340.84
2022-08-26T17:50:12.946Z,97336.59
2022-08-26T17:52:14.438Z,97336.31
2022-08-26T17:54:15.758Z,97335.22
2022-08-26T17:56:17.197Z,97333.78
2022-08-26T17:58:20.003Z,97327.28
2022-08-26T18:00:21.359Z,97326.66
2022-08-26T18:02:22.745Z,97330.00
2022-08-26T18:04:24.172Z,97329.31
2022-08-26T18:06:25.623Z,97330.97
2022-08-26T18:08:27.963Z,97344.66
2022-08-26T18:10:29.287Z,97349.94
2022-08-26T18:12:31.627Z,97350.41
2022-08-26T18:14:33.173Z,97372.53
2022-08-26T18:16:38.287Z,97408.50
2022-08-26T18:18:39.683Z,97408.44
2022-08-26T18:20:41.151Z,97422.28
2022-08-26T18:22:42.449Z,97410.25
2022-08-26T18:24:58.784Z,97420.34
2022-08-26T18:27:00.639Z,97429.28
2022-08-26T18:29:01.943Z,97432.69
2022-08-26T18:31:03.549Z,97512.59
2022-08-26T18:33:04.972Z,97515.72
2022-08-26T18:35:06.363Z,97492.50
2022-08-26T18:39:13.906Z,97472.84
2022-08-26T18:41:15.313Z,97476.19
2022-08-26T18:43:16.980Z,97474.53
2022-08-26T18:45:18.395Z,97471.44
2022-08-26T18:47:19.756Z,97464.13
2022-08-26T18:49:21.076Z,97445.25
2022-08-26T18:51:22.428Z,97437.38
2022-08-26T18:53:23.807Z,97425.38
2022-08-26T18:55:25.446Z,97416.81
2022-08-26T18:57:26.809Z,97399.63
2022-08-26T18:59:30.195Z,97396.91
2022-08-26T19:01:32.262Z,97389.72
2022-08-26T19:03:33.709Z,97385.47
2022-08-26T19:05:35.030Z,97381.16
2022-08-26T19:07:39.586Z,97383.75
2022-08-26T19:09:41.086Z,97382.56
2022-08-26T19:11:43.528Z,97385.19
2022-08-26T19:13:45.119Z,97398.84
2022-08-26T19:15:46.436Z,97403.72
2022-08-26T19:17:48.176Z,97407.09
2022-08-26T19:19:49.840Z,97418.88
2022-08-26T19:21:51.793Z,97415.09
2022-08-26T19:23:53.499Z,97410.69
2022-08-26T19:25:56.906Z,97415.03
2022-08-26T19:27:58.223Z,97411.41
2022-08-26T19:29:59.583Z,97399.84
2022-08-26T19:32:01.568Z,97398.88
2022-08-26T19:34:02.989Z,97400.78
2022-08-26T19:36:06.446Z,97397.75
2022-08-26T19:38:07.970Z,97389.75
2022-08-26T19:40:09.776Z,97387.81
2022-08-26T19:42:11.153Z,97386.78
2022-08-26T19:44:13.073Z,97391.78
2022-08-26T19:46:14.547Z,97387.69
2022-08-26T19:48:16.268Z,97386.47
2022-08-26T19:50:17.698Z,97370.22
2022-08-26T19:52:19.050Z,97370.06
2022-08-26T19:54:22.615Z,97360.84
2022-08-26T19:56:23.969Z,97363.41
2022-08-26T19:58:25.317Z,97366.91
2022-08-26T20:00:26.738Z,97361.56
2022-08-26T20:02:28.189Z,97358.84
2022-08-26T20:04:29.674Z,97354.56
2022-08-26T20:06:31.043Z,97359.69
2022-08-26T20:08:32.392Z,97347.59
2022-08-26T20:10:35.231Z,97351.78
2022-08-26T20:12:37.775Z,97342.69
2022-08-26T20:14:39.123Z,97333.91
2022-08-26T20:16:40.605Z,97333.22
2022-08-26T20:19:00.955Z,97332.19
2022-08-26T20:21:20.910Z,97326.22
2022-08-26T20:23:22.378Z,97326.41
2022-08-26T20:25:23.763Z,97323.53
2022-08-26T20:27:37.726Z,97329.41
2022-08-26T20:29:39.861Z,97320.59
2022-08-26T20:31:41.329Z,97329.25
2022-08-26T20:33:46.424Z,97329.31
2022-08-26T20:35:47.999Z,97325.84
2022-08-26T20:37:49.323Z,97314.72
2022-08-26T20:39:50.794Z,97317.13
2022-08-26T20:41:52.201Z,97319.41
2022-08-26T20:43:53.549Z,97319.56
2022-08-26T20:45:54.933Z,97312.00
2022-08-26T20:47:56.271Z,97314.56
2022-08-26T20:49:57.656Z,97316.38
2022-08-26T20:51:58.997Z,97324.00
2022-08-26T20:54:01.327Z,97320.84
2022-08-26T20:56:02.778Z,97308.72
2022-08-26T20:58:04.161Z,97319.13
2022-08-26T21:00:05.640Z,97320.75
2022-08-26T21:02:06.967Z,97327.56
2022-08-26T21:04:08.643Z,97328.31
2022-08-26T21:06:10.043Z,97331.63
2022-08-26T21:08:12.092Z,97324.00
2022-08-26T21:10:13.675Z,97324.69
2022-08-26T21:12:15.080Z,97320.44
2022-08-26T21:14:17.276Z,97317.81
2022-08-26T21:16:19.647Z,97320.38
2022-08-26T21:18:22.341Z,97327.28
2022-08-26T21:20:24.126Z,97312.81
2022-08-26T21:22:25.483Z,97307.31
2022-08-26T21:24:26.910Z,97302.13
2022-08-26T21:26:28.255Z,97303.75
2022-08-26T21:28:29.581Z,97300.66
2022-08-26T21:30:31.427Z,97312.31
2022-08-26T21:32:34.632Z,97310.56
2022-08-26T21:34:36.002Z,97313.97
2022-08-26T21:36:37.404Z,97311.59
2022-08-26T21:38:38.772Z,97313.81
2022-08-26T21:40:40.122Z,97319.13
2022-08-26T21:42:41.488Z,97331.81
2022-08-26T21:44:44.772Z,97326.75
2022-08-26T21:46:50.750Z,97325.09
2022-08-26T21:48:52.150Z,97331.13
2022-08-26T21:50:53.583Z,97324.69
2022-08-26T21:52:54.959Z,97339.75
2022-08-26T21:54:56.325Z,97353.03
2022-08-26T21:56:57.657Z,97369.50
2022-08-26T21:58:59.041Z,97388.91
2022-08-26T22:01:00.479Z,97391.72
2022-08-26T22:03:01.877Z,97393.00
2022-08-26T22:05:03.252Z,97396.38
2022-08-26T22:07:05.007Z,97390.50
2022-08-26T22:09:06.378Z,97386.09
2022-08-26T22:11:09.393Z,97397.81
2022-08-26T22:13:10.728Z,97394.72
2022-08-26T22:15:12.468Z,97401.16
2022-08-26T22:17:13.911Z,97401.84
2022-08-26T22:19:17.085Z,97399.13
2022-08-26T22:21:18.835Z,97398.28
2022-08-26T22:23:20.842Z,97409.25
2022-08-26T22:25:22.197Z,97418.13
2022-08-26T22:27:23.541Z,97395.25
2022-08-26T22:29:25.146Z,97413.19
2022-08-26T22:31:28.129Z,97420.16
2022-08-26T22:33:38.775Z,97416.81
2022-08-26T22:35:40.932Z,97416.50
2022-08-26T22:37:42.267Z,97408.03
2022-08-26T22:39:43.700Z,97412.94
2022-08-26T22:41:45.334Z,97411.44
2022-08-26T22:43:46.666Z,97400.94
2022-08-26T22:45:48.085Z,97396.13
2022-08-26T22:47:49.437Z,97389.28
2022-08-26T22:49:50.799Z,97381.84
2022-08-26T22:51:52.222Z,97389.50
2022-08-26T22:53:53.613Z,97396.59
2022-08-26T22:55:54.920Z,97383.63
2022-08-26T22:57:56.252Z,97384.38
2022-08-26T22:59:57.619Z,97384.22
2022-08-26T23:01:58.952Z,97373.47
2022-08-26T23:04:00.403Z,97371.97
2022-08-26T23:06:03.419Z,97376.38
2022-08-26T23:08:04.904Z,97380.34
2022-08-26T23:10:06.265Z,97371.09
2022-08-26T23:12:07.624Z,97369.06
2022-08-26T23:14:09.008Z,97368.84
2022-08-26T23:16:10.980Z,97369.88
2022-08-26T23:18:12.506Z,97369.50
2022-08-26T23:20:14.072Z,97372.41
2022-08-26T23:22:17.443Z,97366.00
2022-08-26T23:24:18.824Z,97364.09
2022-08-26T23:26:20.152Z,97355.09
2022-08-26T23:28:21.517Z,97357.06
2022-08-26T23:30:22.822Z,97356.38
2022-08-26T23:32:24.131Z,97362.56
2022-08-26T23:34:44.363Z,97365.34
2022-08-26T23:36:47.322Z,97367.22
2022-08-26T23:38:53.181Z,97363.03
2022-08-26T23:40:54.671Z,97363.13
2022-08-26T23:42:55.995Z,97367.56
2022-08-26T23:44:57.347Z,97361.63
2022-08-26T23:46:58.729Z,97366.81
2022-08-26T23:49:00.103Z,97366.81
2022-08-26T23:51:20.176Z,97361.75
2022-08-26T23:53:21.701Z,97362.72
2022-08-26T23:55:23.471Z,97359.31
2022-08-26T23:57:24.879Z,97355.16
2022-08-26T23:59:26.235Z,97353.50
